Time,TemperatureF,DewpointF,PressureIn,WindDirection,WindDirectionDegrees,WindSpeedMPH,WindSpeedGustMPH,Humidity,HourlyPrecipIn,Conditions,Clouds,dailyrainin,SoftwareType,DateUTC
2013-05-05 00:01:00,57.6,30.2,30.01,ENE,73,0.0,0.0,35,0.00,,CLR,0.00,VWS V14.01,2013-05-05 04:01:00,
2013-05-05 00:02:00,57.6,30.2,30.01,ENE,73,0.0,0.0,35,0.00,,CLR,0.00,VWS V14.01,2013-05-05 04:02:00,
2013-05-05 00:07:00,57.6,30.2,30.01,ENE,73,0.0,0.0,35,0.00,,CLR,0.00,VWS V14.01,2013-05-05 04:07:00,
2013-05-05 00:13:00,57.6,30.2,30.01,ENE,73,0.0,0.0,35,0.00,,CLR,0.00,VWS V14.01,2013-05-05 04:13:00,
2013-05-05 00:18:00,57.6,30.2,30.01,ENE,73,0.0,0.0,35,0.00,,CLR,0.00,VWS V14.01,2013-05-05 04:18:00,
2013-05-05 00:23:00,57.6,30.2,30.01,ENE,73,0.0,0.0,35,0.00,,CLR,0.00,VWS V14.01,2013-05-05 04:23:00,
2013-05-05 00:28:00,57.6,30.2,30.01,ENE,73,0.0,0.0,35,0.00,,CLR,0.00,VWS V14.01,2013-05-05 04:28:00,
2013-05-05 00:33:00,57.6,30.2,30.01,ENE,73,0.0,0.0,35,0.00,,CLR,0.00,VWS V14.01,2013-05-05 04:33:00,
2013-05-05 00:38:00,57.6,30.2,30.01,ENE,73,0.0,0.0,35,0.00,,CLR,0.00,VWS V14.01,2013-05-05 04:38:00,
2013-05-05 00:43:00,57.6,30.2,30.01,ENE,73,0.0,0.0,35,0.00,,CLR,0.00,VWS V14.01,2013-05-05 04:43:00,
2013-05-05 00:48:00,57.6,30.2,30.01,ENE,73,0.0,0.0,35,0.00,,CLR,0.00,VWS V14.01,2013-05-05 04:48:00,
2013-05-05 00:53:00,57.6,30.2,30.01,ENE,73,0.0,0.0,35,0.00,,CLR,0.00,VWS V14.01,2013-05-05 04:53:00,
2013-05-05 00:58:00,57.6,30.2,30.01,ENE,73,0.0,0.0,35,0.00,,CLR,0.00,VWS V14.01,2013-05-05 04:58:00,
2013-05-05 01:04:00,57.6,30.2,30.01,SE,136,0.0,0.0,35,0.00,,CLR,0.00,VWS V14.01,2013-05-05 05:04:00,
2013-05-05 01:09:00,57.6,30.2,30.01,SE,136,0.0,0.0,35,0.00,,CLR,0.00,VWS V14.01,2013-05-05 05:09:00,
2013-05-05 01:14:00,57.6,30.2,30.01,SE,136,0.0,0.0,35,0.00,,CLR,0.00,VWS V14.01,2013-05-05 05:14:00,
2013-05-05 01:19:00,57.6,30.2,29.99,SE,136,0.0,0.0,35,0.00,,CLR,0.00,VWS V14.01,2013-05-05 05:19:00,
2013-05-05 01:24:00,57.6,30.2,29.99,SE,136,0.0,0.0,35,0.00,,CLR,0.00,VWS V14.01,2013-05-05 05:24:00,
2013-05-05 01:29:00,57.6,30.2,29.99,SE,136,0.0,0.0,35,0.00,,CLR,0.00,VWS V14.01,2013-05-05 05:29:00,
2013-05-05 01:34:00,57.6,30.2,29.99,SE,136,0.0,0.0,35,0.00,,CLR,0.00,VWS V14.01,2013-05-05 05:34:00,
2013-05-05 01:39:00,57.6,30.2,29.99,SE,136,0.0,0.0,35,0.00,,CLR,0.00,VWS V14.01,2013-05-05 05:39:00,
2013-05-05 01:44:00,57.6,30.2,29.99,SE,136,0.0,0.0,35,0.00,,CLR,0.00,VWS V14.01,2013-05-05 05:44:00,
2013-05-05 01:49:00,57.6,30.2,29.99,SE,136,0.0,0.0,35,0.00,,CLR,0.00,VWS V14.01,2013-05-05 05:49:00,
2013-05-05 01:54:00,57.6,30.2,29.99,SE,136,0.0,0.0,35,0.00,,CLR,0.00,VWS V14.01,2013-05-05 05:54:00,
2013-05-05 01:59:00,57.6,30.2,29.99,SE,136,0.0,0.0,35,0.00,,CLR,0.00,VWS V14.01,2013-05-05 05:59:00,
2013-05-05 02:04:00,57.6,30.2,29.99,SE,136,0.0,0.0,35,0.00,,CLR,0.00,VWS V14.01,2013-05-05 06:04:00,
2013-05-05 02:10:00,57.6,30.2,29.99,SE,136,0.0,0.0,35,0.00,,CLR,0.00,VWS V14.01,2013-05-05 06:10:00,
2013-05-05 02:15:00,57.6,30.2,29.99,SE,145,0.0,0.0,35,0.00,,CLR,0.00,VWS V14.01,2013-05-05 06:15:00,
2013-05-05 02:20:00,57.6,30.2,29.99,SE,145,0.0,0.0,35,0.00,,CLR,0.00,VWS V14.01,2013-05-05 06:20:00,
2013-05-05 02:25:00,57.6,30.2,29.99,SE,145,0.0,0.0,35,0.00,,CLR,0.00,VWS V14.01,2013-05-05 06:25:00,
2013-05-05 02:30:00,57.6,30.2,29.99,SSE,147,0.0,0.0,35,0.00,,CLR,0.00,VWS V14.01,2013-05-05 06:30:00,
2013-05-05 02:35:00,57.6,30.2,29.99,SSE,147,0.0,0.0,35,0.00,,CLR,0.00,VWS V14.01,2013-05-05 06:35:00,
2013-05-05 02:40:00,57.6,30.2,29.99,SSE,147,0.0,0.0,35,0.00,,CLR,0.00,VWS V14.01,2013-05-05 06:40:00,
2013-05-05 02:45:00,57.6,30.2,29.99,SSE,147,0.0,0.0,35,0.00,,CLR,0.00,VWS V14.01,2013-05-05 06:45:00,
2013-05-05 02:50:00,57.6,30.2,29.99,SSE,147,0.0,0.0,35,0.00,,CLR,0.00,VWS V14.01,2013-05-05 06:50:00,
2013-05-05 02:55:00,57.6,30.2,29.99,SSE,147,0.0,0.0,35,0.00,,CLR,0.00,VWS V14.01,2013-05-05 06:55:00,
2013-05-05 03:00:00,57.6,30.2,29.99,SSE,147,0.0,0.0,35,0.00,,CLR,0.00,VWS V14.01,2013-05-05 07:00:00,
2013-05-05 03:05:00,57.6,30.2,29.99,SSE,147,0.0,0.0,35,0.00,,CLR,0.00,VWS V14.01,2013-05-05 07:05:00,
2013-05-05 03:10:00,57.6,30.2,29.99,SSE,147,0.0,0.0,35,0.00,,CLR,0.00,VWS V14.01,2013-05-05 07:10:00,
2013-05-05 03:15:00,57.6,30.2,29.98,SSE,147,0.0,0.0,35,0.00,,CLR,0.00,VWS V14.01,2013-05-05 07:15:00,
2013-05-05 03:21:00,57.6,30.2,29.98,SSE,147,0.0,0.0,35,0.00,,CLR,0.00,VWS V14.01,2013-05-05 07:21:00,
2013-05-05 03:26:00,57.6,30.2,29.98,SSE,147,0.0,0.0,35,0.00,,CLR,0.00,VWS V14.01,2013-05-05 07:26:00,
2013-05-05 03:31:00,57.6,30.2,29.98,SSE,147,0.0,0.0,35,0.00,,CLR,0.00,VWS V14.01,2013-05-05 07:31:00,
2013-05-05 03:36:00,57.6,30.2,29.98,South,188,0.0,0.0,35,0.00,,CLR,0.00,VWS V14.01,2013-05-05 07:36:00,
2013-05-05 03:41:00,57.6,30.2,29.98,South,176,0.0,0.0,35,0.00,,CLR,0.00,VWS V14.01,2013-05-05 07:41:00,
2013-05-05 03:46:00,57.6,30.2,29.98,SSE,154,0.0,0.0,35,0.00,,CLR,0.00,VWS V14.01,2013-05-05 07:46:00,
2013-05-05 03:51:00,57.6,30.2,29.98,SSE,154,0.0,0.0,35,0.00,,CLR,0.00,VWS V14.01,2013-05-05 07:51:00,
2013-05-05 03:56:00,57.6,30.2,29.98,SSE,154,0.0,0.0,35,0.00,,CLR,0.00,VWS V14.01,2013-05-05 07:56:00,
2013-05-05 04:01:00,57.6,30.2,29.98,SSE,154,0.0,0.0,35,0.00,,CLR,0.00,VWS V14.01,2013-05-05 08:01:00,
2013-05-05 04:06:00,57.6,30.2,29.98,SSE,154,0.0,0.0,35,0.00,,CLR,0.00,VWS V14.01,2013-05-05 08:06:00,
2013-05-05 04:11:00,57.6,30.2,29.98,South,186,0.0,0.0,35,0.00,,CLR,0.00,VWS V14.01,2013-05-05 08:11:00,
2013-05-05 04:16:00,57.6,30.2,30.00,South,171,0.0,0.0,35,0.00,,CLR,0.00,VWS V14.01,2013-05-05 08:16:00,
2013-05-05 04:21:00,57.6,30.2,30.00,SSE,168,0.0,0.0,35,0.00,,CLR,0.00,VWS V14.01,2013-05-05 08:21:00,
2013-05-05 04:26:00,57.6,30.2,30.00,SSE,168,0.0,0.0,35,0.00,,CLR,0.00,VWS V14.01,2013-05-05 08:26:00,
2013-05-05 04:32:00,57.6,30.2,29.99,SSE,164,0.0,0.0,35,0.00,,CLR,0.00,VWS V14.01,2013-05-05 08:32:00,
2013-05-05 04:37:00,57.6,30.2,29.99,South,184,0.0,0.0,35,0.00,,CLR,0.00,VWS V14.01,2013-05-05 08:37:00,
2013-05-05 04:42:00,45.5,19.5,29.99,SE,145,0.0,0.0,35,0.00,,CLR,0.00,VWS V14.01,2013-05-05 08:42:00,
2013-05-05 04:47:00,45.4,19.4,30.02,SSE,160,0.0,0.0,35,0.00,,CLR,0.00,VWS V14.01,2013-05-05 08:47:00,
2013-05-05 04:52:00,45.2,19.2,30.02,SSE,161,0.0,0.0,35,0.00,,CLR,0.00,VWS V14.01,2013-05-05 08:52:00,
2013-05-05 04:57:00,45.2,35.3,30.02,SSE,161,0.0,0.0,68,0.00,,CLR,0.00,VWS V14.01,2013-05-05 08:57:00,
2013-05-05 05:02:00,44.9,35.0,30.02,SSE,154,0.0,0.0,68,0.00,,CLR,0.00,VWS V14.01,2013-05-05 09:02:00,
2013-05-05 05:07:00,44.8,34.9,30.02,SSE,154,0.0,0.0,68,0.00,,CLR,0.00,VWS V14.01,2013-05-05 09:07:00,
2013-05-05 05:12:00,44.6,34.7,30.02,SE,140,0.0,0.0,68,0.00,,CLR,0.00,VWS V14.01,2013-05-05 09:12:00,
2013-05-05 05:17:00,44.6,34.7,30.02,SE,138,0.0,0.0,68,0.00,,CLR,0.00,VWS V14.01,2013-05-05 09:17:00,
2013-05-05 05:22:00,44.6,34.7,30.02,South,169,0.0,0.0,68,0.00,,CLR,0.00,VWS V14.01,2013-05-05 09:22:00,
2013-05-05 05:27:00,44.6,34.7,30.02,SSE,154,0.0,0.0,68,0.00,,CLR,0.00,VWS V14.01,2013-05-05 09:27:00,
2013-05-05 05:33:00,45.8,35.8,30.02,SSE,167,0.0,0.0,68,0.00,,CLR,0.00,VWS V14.01,2013-05-05 09:33:00,
2013-05-05 05:38:00,46.2,36.2,30.02,SSE,151,0.0,0.0,68,0.00,,CLR,0.00,VWS V14.01,2013-05-05 09:38:00,
2013-05-05 05:43:00,46.4,36.4,30.02,SSE,151,0.0,0.0,68,0.00,,CLR,0.00,VWS V14.01,2013-05-05 09:43:00,
2013-05-05 05:48:00,46.4,36.4,30.02,SSE,164,0.0,0.0,68,0.00,,CLR,0.00,VWS V14.01,2013-05-05 09:48:00,
2013-05-05 05:53:00,46.1,36.1,30.02,SE,140,0.0,0.0,68,0.00,,CLR,0.00,VWS V14.01,2013-05-05 09:53:00,
2013-05-05 05:58:00,46.0,36.0,30.02,SE,140,0.0,0.0,68,0.00,,CLR,0.00,VWS V14.01,2013-05-05 09:58:00,
2013-05-05 06:03:00,46.0,36.0,30.02,SE,140,0.0,0.0,68,0.00,,CLR,0.00,VWS V14.01,2013-05-05 10:03:00,
2013-05-05 06:08:00,46.0,36.0,30.02,SE,140,0.0,0.0,68,0.00,,CLR,0.00,VWS V14.01,2013-05-05 10:08:00,
2013-05-05 06:13:00,46.0,36.0,30.02,SE,140,0.0,0.0,68,0.00,,CLR,0.00,VWS V14.01,2013-05-05 10:13:00,
2013-05-05 06:18:00,44.3,34.4,30.00,East,89,0.0,0.0,68,0.00,,CLR,0.00,VWS V14.01,2013-05-05 10:18:00,
2013-05-05 06:23:00,43.9,34.0,30.00,SSE,154,0.0,0.0,68,0.00,,CLR,0.00,VWS V14.01,2013-05-05 10:23:00,
2013-05-05 06:28:00,43.8,33.9,30.00,South,185,0.0,0.0,68,0.00,,CLR,0.00,VWS V14.01,2013-05-05 10:28:00,
2013-05-05 06:33:00,43.3,33.5,30.01,South,175,0.0,0.0,68,0.00,,CLR,0.00,VWS V14.01,2013-05-05 10:33:00,
2013-05-05 06:38:00,43.1,33.3,30.01,South,175,0.0,0.0,68,0.00,,CLR,0.00,VWS V14.01,2013-05-05 10:38:00,
2013-05-05 06:43:00,42.9,33.1,30.01,South,175,0.0,0.0,68,0.00,,CLR,0.00,VWS V14.01,2013-05-05 10:43:00,
2013-05-05 06:48:00,42.5,32.7,30.01,South,175,0.0,0.0,68,0.00,,CLR,0.00,VWS V14.01,2013-05-05 10:48:00,
2013-05-05 06:53:00,42.2,32.4,30.01,South,175,0.0,0.0,68,0.00,,CLR,0.00,VWS V14.01,2013-05-05 10:53:00,
2013-05-05 06:58:00,42.2,32.4,30.01,South,175,0.0,0.0,68,0.00,,CLR,0.00,VWS V14.01,2013-05-05 10:58:00,
2013-05-05 07:03:00,42.2,32.4,30.02,South,175,0.0,0.0,68,0.00,,CLR,0.00,VWS V14.01,2013-05-05 11:03:00,
2013-05-05 07:08:00,42.1,32.3,30.02,South,175,0.0,0.0,68,0.00,,CLR,0.00,VWS V14.01,2013-05-05 11:08:00,
2013-05-05 07:13:00,42.1,35.8,30.02,South,175,0.0,0.0,78,0.00,,CLR,0.00,VWS V14.01,2013-05-05 11:13:00,
2013-05-05 07:19:00,42.1,35.8,30.05,South,175,0.0,0.0,78,0.00,,CLR,0.00,VWS V14.01,2013-05-05 11:19:00,
2013-05-05 07:24:00,42.6,36.2,30.05,South,169,0.0,0.0,78,0.00,,CLR,0.00,VWS V14.01,2013-05-05 11:24:00,
2013-05-05 07:29:00,42.6,36.2,30.05,South,175,0.0,0.0,78,0.00,,CLR,0.00,VWS V14.01,2013-05-05 11:29:00,
2013-05-05 07:34:00,43.9,38.5,30.05,South,175,0.0,0.0,81,0.00,,CLR,0.00,VWS V14.01,2013-05-05 11:34:00,
2013-05-05 07:39:00,46.4,40.9,30.05,South,175,0.0,0.0,81,0.00,,CLR,0.00,VWS V14.01,2013-05-05 11:39:00,
2013-05-05 07:44:00,46.4,40.9,30.05,South,175,0.0,0.0,81,0.00,,CLR,0.00,VWS V14.01,2013-05-05 11:44:00,
2013-05-05 07:49:00,46.4,40.9,30.04,South,175,0.0,0.0,81,0.00,,CLR,0.00,VWS V14.01,2013-05-05 11:49:00,
2013-05-05 07:54:00,46.4,40.9,30.04,South,175,0.0,0.0,81,0.00,,CLR,0.00,VWS V14.01,2013-05-05 11:54:00,
2013-05-05 07:59:00,46.4,40.9,30.04,South,175,0.0,0.0,81,0.00,,CLR,0.00,VWS V14.01,2013-05-05 11:59:00,
2013-05-05 08:04:00,46.4,40.9,30.05,South,175,0.0,0.0,81,0.00,,CLR,0.00,VWS V14.01,2013-05-05 12:04:00,
2013-05-05 08:09:00,46.4,40.9,30.05,South,175,0.0,0.0,81,0.00,,CLR,0.00,VWS V14.01,2013-05-05 12:09:00,
2013-05-05 08:14:00,46.4,40.9,30.05,South,175,0.0,0.0,81,0.00,,CLR,0.00,VWS V14.01,2013-05-05 12:14:00,
2013-05-05 08:19:00,46.4,40.9,30.03,South,175,0.0,0.0,81,0.00,,CLR,0.00,VWS V14.01,2013-05-05 12:19:00,
2013-05-05 08:25:00,46.4,40.9,30.03,South,175,0.0,0.0,81,0.00,,CLR,0.00,VWS V14.01,2013-05-05 12:25:00,
2013-05-05 08:30:00,56.5,50.8,30.02,South,175,0.0,0.0,81,0.00,,CLR,0.00,VWS V14.01,2013-05-05 12:30:00,
2013-05-05 08:35:00,56.9,51.1,30.02,South,175,0.0,0.0,81,0.00,,CLR,0.00,VWS V14.01,2013-05-05 12:35:00,
2013-05-05 08:40:00,57.8,52.0,30.02,South,175,0.0,0.0,81,0.00,,CLR,0.00,VWS V14.01,2013-05-05 12:40:00,
2013-05-05 08:45:00,57.8,52.0,30.02,South,175,0.0,0.0,81,0.00,,CLR,0.00,VWS V14.01,2013-05-05 12:45:00,
2013-05-05 08:50:00,57.8,52.0,30.02,South,175,0.0,0.0,81,0.00,,CLR,0.00,VWS V14.01,2013-05-05 12:50:00,
2013-05-05 08:55:00,57.8,52.0,30.02,SE,138,0.0,0.0,81,0.00,,CLR,0.00,VWS V14.01,2013-05-05 12:55:00,
2013-05-05 09:00:00,57.8,52.0,30.02,SE,138,0.0,0.0,81,0.00,,CLR,0.00,VWS V14.01,2013-05-05 13:00:00,
2013-05-05 09:05:00,57.8,52.0,30.02,SE,138,0.0,0.0,81,0.00,,CLR,0.00,VWS V14.01,2013-05-05 13:05:00,
2013-05-05 09:10:00,57.8,52.0,30.02,ENE,62,0.0,0.0,81,0.00,,CLR,0.00,VWS V14.01,2013-05-05 13:10:00,
2013-05-05 09:15:00,57.8,52.0,30.02,ENE,62,0.0,0.0,81,0.00,,CLR,0.00,VWS V14.01,2013-05-05 13:15:00,
2013-05-05 09:20:00,57.8,52.0,30.02,ENE,62,0.0,0.0,81,0.00,,CLR,0.00,VWS V14.01,2013-05-05 13:20:00,
2013-05-05 09:26:00,57.8,52.0,30.02,ENE,62,0.0,0.0,81,0.00,,CLR,0.00,VWS V14.01,2013-05-05 13:26:00,
2013-05-05 09:31:00,57.8,52.0,30.02,ENE,62,0.0,0.0,81,0.00,,CLR,0.00,VWS V14.01,2013-05-05 13:31:00,
2013-05-05 09:36:00,57.8,52.0,30.02,ESE,110,0.0,0.0,81,0.00,,CLR,0.00,VWS V14.01,2013-05-05 13:36:00,
2013-05-05 09:41:00,57.8,52.0,30.02,ESE,110,0.0,0.0,81,0.00,,CLR,0.00,VWS V14.01,2013-05-05 13:41:00,
2013-05-05 09:46:00,57.8,52.0,30.02,ESE,110,0.0,0.0,81,0.00,,CLR,0.00,VWS V14.01,2013-05-05 13:46:00,
2013-05-05 09:51:00,57.8,52.0,30.02,ESE,110,0.0,0.0,81,0.00,,CLR,0.00,VWS V14.01,2013-05-05 13:51:00,
2013-05-05 09:56:00,57.8,52.0,30.02,ESE,110,0.0,0.0,81,0.00,,CLR,0.00,VWS V14.01,2013-05-05 13:56:00,
2013-05-05 10:01:00,57.8,52.0,30.02,ESE,110,0.0,0.0,81,0.00,,CLR,0.00,VWS V14.01,2013-05-05 14:01:00,
2013-05-05 10:06:00,57.8,52.0,30.02,ESE,110,0.0,0.0,81,0.00,,CLR,0.00,VWS V14.01,2013-05-05 14:06:00,
2013-05-05 10:11:00,57.8,52.0,30.02,ESE,110,0.0,0.0,81,0.00,,CLR,0.00,VWS V14.01,2013-05-05 14:11:00,
2013-05-05 10:16:00,57.8,52.0,30.02,ESE,110,0.0,0.0,81,0.00,,CLR,0.00,VWS V14.01,2013-05-05 14:16:00,
2013-05-05 10:21:00,57.8,52.0,30.02,ESE,110,0.0,0.0,81,0.00,,CLR,0.00,VWS V14.01,2013-05-05 14:21:00,
2013-05-05 10:27:00,57.8,52.0,30.02,NE,40,0.0,0.0,81,0.00,,CLR,0.00,VWS V14.01,2013-05-05 14:27:00,
2013-05-05 10:32:00,69.4,63.3,30.00,NE,41,0.0,0.0,81,0.00,,CLR,0.00,VWS V14.01,2013-05-05 14:32:00,
2013-05-05 10:37:00,69.4,63.3,30.00,East,82,0.0,0.0,81,0.00,,CLR,0.00,VWS V14.01,2013-05-05 14:37:00,
2013-05-05 10:42:00,69.4,63.3,30.00,East,82,0.0,0.0,81,0.00,,CLR,0.00,VWS V14.01,2013-05-05 14:42:00,
2013-05-05 10:47:00,69.4,63.3,30.02,ESE,116,0.0,0.0,81,0.00,,CLR,0.00,VWS V14.01,2013-05-05 14:47:00,
2013-05-05 10:52:00,69.4,63.3,30.02,ESE,116,0.0,0.0,81,0.00,,CLR,0.00,VWS V14.01,2013-05-05 14:52:00,
2013-05-05 10:57:00,69.4,63.3,30.02,ESE,116,0.0,0.0,81,0.00,,CLR,0.00,VWS V14.01,2013-05-05 14:57:00,
2013-05-05 11:02:00,69.4,63.3,30.01,ESE,116,0.0,0.0,81,0.00,,CLR,0.00,VWS V14.01,2013-05-05 15:02:00,
2013-05-05 11:07:00,69.4,63.3,30.01,ESE,116,0.0,0.0,81,0.00,,CLR,0.00,VWS V14.01,2013-05-05 15:07:00,
2013-05-05 11:12:00,69.4,63.3,30.01,ESE,116,0.0,0.0,81,0.00,,CLR,0.00,VWS V14.01,2013-05-05 15:12:00,
2013-05-05 11:17:00,69.4,63.3,30.01,ESE,116,0.0,0.0,81,0.00,,CLR,0.00,VWS V14.01,2013-05-05 15:17:00,
2013-05-05 11:22:00,69.4,63.3,30.01,NNE,17,0.0,0.0,81,0.00,,CLR,0.00,VWS V14.01,2013-05-05 15:22:00,
2013-05-05 11:27:00,69.4,33.1,30.01,ENE,66,0.0,0.0,26,0.00,,CLR,0.00,VWS V14.01,2013-05-05 15:27:00,
2013-05-05 11:32:00,74.6,37.5,29.99,SE,134,0.0,0.0,26,0.00,,CLR,0.00,VWS V14.01,2013-05-05 15:32:00,
2013-05-05 11:37:00,74.6,36.5,29.99,NE,56,0.0,0.0,25,0.00,,CLR,0.00,VWS V14.01,2013-05-05 15:37:00,
2013-05-05 11:42:00,74.7,37.6,29.99,NE,52,0.0,0.0,26,0.00,,CLR,0.00,VWS V14.01,2013-05-05 15:42:00,
2013-05-05 11:47:00,75.3,38.1,29.99,South,185,0.0,0.0,26,0.00,,CLR,0.00,VWS V14.01,2013-05-05 15:47:00,
2013-05-05 11:52:00,76.5,39.1,29.99,South,184,0.0,0.0,26,0.00,,CLR,0.00,VWS V14.01,2013-05-05 15:52:00,
2013-05-05 11:57:00,77.4,39.9,29.99,SW,229,0.0,0.0,26,0.00,,CLR,0.00,VWS V14.01,2013-05-05 15:57:00,
2013-05-05 12:03:00,77.6,40.0,29.98,NNE,24,0.0,0.0,26,0.00,,CLR,0.00,VWS V14.01,2013-05-05 16:03:00,
2013-05-05 12:08:00,77.2,39.7,29.98,NE,52,0.0,0.0,26,0.00,,CLR,0.00,VWS V14.01,2013-05-05 16:08:00,
2013-05-05 12:13:00,77.2,39.7,29.98,ENE,72,0.0,0.0,26,0.00,,CLR,0.00,VWS V14.01,2013-05-05 16:13:00,
2013-05-05 12:18:00,77.2,39.7,29.98,South,175,0.0,0.0,26,0.00,,CLR,0.00,VWS V14.01,2013-05-05 16:18:00,
2013-05-05 12:23:00,77.2,39.7,29.98,SW,229,6.0,0.0,26,0.00,,CLR,0.00,VWS V14.01,2013-05-05 16:23:00,
2013-05-05 12:28:00,77.2,39.7,29.98,WNW,285,0.0,0.0,26,0.00,,CLR,0.00,VWS V14.01,2013-05-05 16:28:00,
2013-05-05 12:33:00,77.2,39.7,29.97,West,271,2.0,0.0,26,0.00,,CLR,0.00,VWS V14.01,2013-05-05 16:33:00,
2013-05-05 12:38:00,75.6,38.3,29.97,WNW,295,10.0,0.0,26,0.00,,CLR,0.00,VWS V14.01,2013-05-05 16:38:00,
2013-05-05 12:43:00,74.9,37.7,29.97,WNW,284,2.0,0.0,26,0.00,,CLR,0.00,VWS V14.01,2013-05-05 16:43:00,
2013-05-05 12:48:00,73.5,36.5,29.98,NNW,330,0.0,0.0,26,0.00,,CLR,0.00,VWS V14.01,2013-05-05 16:48:00,
2013-05-05 12:53:00,73.5,36.5,29.98,North,349,5.0,0.0,26,0.00,,CLR,0.00,VWS V14.01,2013-05-05 16:53:00,
2013-05-05 12:58:00,73.5,36.5,29.98,WNW,287,0.0,0.0,26,0.00,,CLR,0.00,VWS V14.01,2013-05-05 16:58:00,
2013-05-05 13:04:00,73.5,36.5,29.98,West,261,0.0,0.0,26,0.00,,CLR,0.00,VWS V14.01,2013-05-05 17:04:00,
2013-05-05 13:09:00,73.5,36.5,29.98,West,261,0.0,0.0,26,0.00,,CLR,0.00,VWS V14.01,2013-05-05 17:09:00,
2013-05-05 13:14:00,73.5,36.5,29.98,NNW,330,0.0,0.0,26,0.00,,CLR,0.00,VWS V14.01,2013-05-05 17:14:00,
2013-05-05 13:19:00,73.5,36.5,29.98,NNW,330,0.0,0.0,26,0.00,,CLR,0.00,VWS V14.01,2013-05-05 17:19:00,
2013-05-05 13:24:00,73.5,36.5,29.98,WNW,295,0.0,0.0,26,0.00,,CLR,0.00,VWS V14.01,2013-05-05 17:24:00,
2013-05-05 13:29:00,73.5,36.5,29.98,NNW,330,0.0,0.0,26,0.00,,CLR,0.00,VWS V14.01,2013-05-05 17:29:00,
2013-05-05 13:34:00,73.5,36.5,29.97,NNW,330,0.0,0.0,26,0.00,,CLR,0.00,VWS V14.01,2013-05-05 17:34:00,
2013-05-05 13:39:00,69.8,33.4,29.97,NW,311,5.0,0.0,26,0.00,,CLR,0.00,VWS V14.01,2013-05-05 17:39:00,
2013-05-05 13:44:00,69.6,36.8,29.97,North,359,5.0,0.0,30,0.00,,CLR,0.00,VWS V14.01,2013-05-05 17:44:00,
2013-05-05 13:49:00,69.6,36.8,29.98,North,10,5.0,0.0,30,0.00,,CLR,0.00,VWS V14.01,2013-05-05 17:49:00,
2013-05-05 13:54:00,70.3,37.4,29.98,NNW,343,0.0,0.0,30,0.00,,CLR,0.00,VWS V14.01,2013-05-05 17:54:00,
2013-05-05 14:00:00,70.9,38.0,29.97,North,8,7.0,0.0,30,0.00,,CLR,0.00,VWS V14.01,2013-05-05 18:00:00,
2013-05-05 14:05:00,71.1,38.1,29.97,North,359,0.0,0.0,30,0.00,,CLR,0.00,VWS V14.01,2013-05-05 18:05:00,
2013-05-05 14:10:00,71.1,38.1,29.97,NNE,31,7.0,0.0,30,0.00,,CLR,0.00,VWS V14.01,2013-05-05 18:10:00,
2013-05-05 14:15:00,71.1,38.1,29.97,NNE,16,0.0,0.0,30,0.00,,CLR,0.00,VWS V14.01,2013-05-05 18:15:00,
2013-05-05 14:20:00,70.9,38.0,29.97,North,6,2.0,0.0,30,0.00,,CLR,0.00,VWS V14.01,2013-05-05 18:20:00,
2013-05-05 14:25:00,70.9,38.0,29.97,North,6,2.0,0.0,30,0.00,,CLR,0.00,VWS V14.01,2013-05-05 18:25:00,
2013-05-05 14:30:00,70.9,38.0,29.97,North,6,2.0,0.0,30,0.00,,CLR,0.00,VWS V14.01,2013-05-05 18:30:00,
2013-05-05 14:35:00,70.9,38.0,29.97,North,6,2.0,0.0,30,0.00,,CLR,0.00,VWS V14.01,2013-05-05 18:35:00,
2013-05-05 14:40:00,70.9,38.0,29.97,North,6,2.0,0.0,30,0.00,,CLR,0.00,VWS V14.01,2013-05-05 18:40:00,
2013-05-05 14:45:00,70.9,38.0,29.98,North,6,2.0,0.0,30,0.00,,CLR,0.00,VWS V14.01,2013-05-05 18:45:00,
2013-05-05 14:50:00,70.9,38.0,29.98,North,6,2.0,0.0,30,0.00,,CLR,0.00,VWS V14.01,2013-05-05 18:50:00,
2013-05-05 14:55:00,69.8,37.0,29.98,NW,313,0.0,0.0,30,0.00,,CLR,0.00,VWS V14.01,2013-05-05 18:55:00,
2013-05-05 15:00:00,69.8,37.0,29.96,NW,308,0.0,0.0,30,0.00,,CLR,0.00,VWS V14.01,2013-05-05 19:00:00,
2013-05-05 15:05:00,69.8,37.0,29.96,NW,313,7.0,0.0,30,0.00,,CLR,0.00,VWS V14.01,2013-05-05 19:05:00,
2013-05-05 15:10:00,70.6,37.7,29.96,NNE,16,10.0,0.0,30,0.00,,CLR,0.00,VWS V14.01,2013-05-05 19:10:00,
2013-05-05 15:16:00,71.3,38.3,29.96,WNW,296,10.0,0.0,30,0.00,,CLR,0.00,VWS V14.01,2013-05-05 19:16:00,
2013-05-05 15:21:00,71.3,38.3,29.96,WNW,296,10.0,0.0,30,0.00,,CLR,0.00,VWS V14.01,2013-05-05 19:21:00,
2013-05-05 15:26:00,72.0,38.9,29.96,NNW,344,5.0,0.0,30,0.00,,CLR,0.00,VWS V14.01,2013-05-05 19:26:00,
2013-05-05 15:31:00,72.0,38.9,29.95,NNW,344,5.0,0.0,30,0.00,,CLR,0.00,VWS V14.01,2013-05-05 19:31:00,
2013-05-05 15:36:00,72.0,38.9,29.95,NNW,344,5.0,0.0,30,0.00,,CLR,0.00,VWS V14.01,2013-05-05 19:36:00,
2013-05-05 15:41:00,72.0,38.9,29.95,NNW,344,5.0,0.0,30,0.00,,CLR,0.00,VWS V14.01,2013-05-05 19:41:00,
2013-05-05 15:46:00,72.0,38.9,29.96,NNW,344,5.0,0.0,30,0.00,,CLR,0.00,VWS V14.01,2013-05-05 19:46:00,
2013-05-05 15:51:00,72.0,38.9,29.96,NNW,344,5.0,0.0,30,0.00,,CLR,0.00,VWS V14.01,2013-05-05 19:51:00,
2013-05-05 15:56:00,72.0,38.9,29.96,NNW,344,5.0,0.0,30,0.00,,CLR,0.00,VWS V14.01,2013-05-05 19:56:00,
2013-05-05 16:02:00,72.0,38.9,29.96,NNW,344,5.0,0.0,30,0.00,,CLR,0.00,VWS V14.01,2013-05-05 20:02:00,
2013-05-05 16:07:00,72.0,38.9,29.96,NNW,344,5.0,0.0,30,0.00,,CLR,0.00,VWS V14.01,2013-05-05 20:07:00,
2013-05-05 16:12:00,70.1,37.3,29.96,NW,319,10.0,0.0,30,0.00,,CLR,0.00,VWS V14.01,2013-05-05 20:12:00,
2013-05-05 16:17:00,69.9,37.1,29.96,North,7,10.0,0.0,30,0.00,,CLR,0.00,VWS V14.01,2013-05-05 20:17:00,
2013-05-05 16:22:00,69.6,36.8,29.96,NW,312,12.0,0.0,30,0.00,,CLR,0.00,VWS V14.01,2013-05-05 20:22:00,
2013-05-05 16:27:00,69.6,36.8,29.96,NW,312,12.0,0.0,30,0.00,,CLR,0.00,VWS V14.01,2013-05-05 20:27:00,
2013-05-05 16:32:00,69.4,36.7,29.96,NW,312,12.0,0.0,30,0.00,,CLR,0.00,VWS V14.01,2013-05-05 20:32:00,
2013-05-05 16:37:00,69.4,34.0,29.96,North,350,0.0,0.0,27,0.00,,CLR,0.00,VWS V14.01,2013-05-05 20:37:00,
2013-05-05 16:42:00,69.4,34.0,29.96,NNW,333,0.0,0.0,27,0.00,,CLR,0.00,VWS V14.01,2013-05-05 20:42:00,
2013-05-05 16:47:00,69.6,34.2,29.96,NW,313,12.0,0.0,27,0.00,,CLR,0.00,VWS V14.01,2013-05-05 20:47:00,
2013-05-05 16:52:00,69.6,34.2,29.96,North,0,2.0,0.0,27,0.00,,CLR,0.00,VWS V14.01,2013-05-05 20:52:00,
2013-05-05 16:57:00,69.6,34.2,29.96,North,7,6.0,0.0,27,0.00,,CLR,0.00,VWS V14.01,2013-05-05 20:57:00,
2013-05-05 17:02:00,69.6,34.2,29.95,NNW,344,0.0,0.0,27,0.00,,CLR,0.00,VWS V14.01,2013-05-05 21:02:00,
2013-05-05 17:07:00,68.9,33.6,29.95,North,6,5.0,0.0,27,0.00,,CLR,0.00,VWS V14.01,2013-05-05 21:07:00,
2013-05-05 17:12:00,68.9,33.6,29.95,North,359,10.0,0.0,27,0.00,,CLR,0.00,VWS V14.01,2013-05-05 21:12:00,
2013-05-05 17:18:00,68.9,33.6,29.95,North,359,10.0,0.0,27,0.00,,CLR,0.00,VWS V14.01,2013-05-05 21:18:00,
2013-05-05 17:23:00,68.9,34.5,29.95,NW,311,7.0,0.0,28,0.00,,CLR,0.00,VWS V14.01,2013-05-05 21:23:00,
2013-05-05 17:28:00,68.1,33.8,29.95,NNW,340,0.0,0.0,28,0.00,,CLR,0.00,VWS V14.01,2013-05-05 21:28:00,
2013-05-05 17:33:00,68.1,33.8,29.94,North,350,10.0,0.0,28,0.00,,CLR,0.00,VWS V14.01,2013-05-05 21:33:00,
2013-05-05 17:38:00,68.1,33.8,29.94,North,350,10.0,0.0,28,0.00,,CLR,0.00,VWS V14.01,2013-05-05 21:38:00,
2013-05-05 17:43:00,68.1,33.8,29.94,North,350,10.0,0.0,28,0.00,,CLR,0.00,VWS V14.01,2013-05-05 21:43:00,
2013-05-05 17:48:00,68.1,33.8,29.95,North,350,10.0,0.0,28,0.00,,CLR,0.00,VWS V14.01,2013-05-05 21:48:00,
2013-05-05 17:53:00,68.1,33.8,29.95,North,350,10.0,0.0,28,0.00,,CLR,0.00,VWS V14.01,2013-05-05 21:53:00,
2013-05-05 17:58:00,68.1,33.8,29.95,North,353,6.0,0.0,28,0.00,,CLR,0.00,VWS V14.01,2013-05-05 21:58:00,
2013-05-05 18:03:00,68.1,33.8,29.95,North,353,6.0,0.0,28,0.00,,CLR,0.00,VWS V14.01,2013-05-05 22:03:00,
2013-05-05 18:08:00,68.1,33.8,29.95,North,353,6.0,0.0,28,0.00,,CLR,0.00,VWS V14.01,2013-05-05 22:08:00,
2013-05-05 18:13:00,68.3,34.0,29.95,NNW,347,6.0,0.0,28,0.00,,CLR,0.00,VWS V14.01,2013-05-05 22:13:00,
2013-05-05 18:18:00,68.3,34.0,29.93,NNW,347,6.0,0.0,28,0.00,,CLR,0.00,VWS V14.01,2013-05-05 22:18:00,
2013-05-05 18:23:00,68.3,34.0,29.93,NNW,347,6.0,0.0,28,0.00,,CLR,0.00,VWS V14.01,2013-05-05 22:23:00,
2013-05-05 18:28:00,68.3,34.0,29.93,NNW,336,8.0,0.0,28,0.00,,CLR,0.00,VWS V14.01,2013-05-05 22:28:00,
2013-05-05 18:33:00,68.9,34.5,29.92,NNE,18,2.0,0.0,28,0.00,,CLR,0.00,VWS V14.01,2013-05-05 22:33:00,
2013-05-05 18:38:00,68.9,34.5,29.92,NNE,18,2.0,0.0,28,0.00,,CLR,0.00,VWS V14.01,2013-05-05 22:38:00,
2013-05-05 18:43:00,68.9,34.5,29.92,NNW,335,0.0,0.0,28,0.00,,CLR,0.00,VWS V14.01,2013-05-05 22:43:00,
2013-05-05 18:48:00,68.9,34.5,29.92,NNW,344,0.0,0.0,28,0.00,,CLR,0.00,VWS V14.01,2013-05-05 22:48:00,
2013-05-05 18:54:00,68.1,33.8,29.92,North,359,0.0,0.0,28,0.00,,CLR,0.00,VWS V14.01,2013-05-05 22:54:00,
2013-05-05 18:59:00,67.6,33.4,29.92,NNW,342,2.0,0.0,28,0.00,,CLR,0.00,VWS V14.01,2013-05-05 22:59:00,
2013-05-05 19:04:00,67.6,33.4,29.92,North,354,1.0,0.0,28,0.00,,CLR,0.00,VWS V14.01,2013-05-05 23:04:00,
2013-05-05 19:09:00,67.6,33.4,29.92,North,353,5.0,0.0,28,0.00,,CLR,0.00,VWS V14.01,2013-05-05 23:09:00,
2013-05-05 19:14:00,67.1,32.9,29.92,NW,320,0.0,0.0,28,0.00,,CLR,0.00,VWS V14.01,2013-05-05 23:14:00,
2013-05-05 19:19:00,66.9,32.8,29.92,NNW,347,2.0,0.0,28,0.00,,CLR,0.00,VWS V14.01,2013-05-05 23:19:00,
2013-05-05 19:24:00,66.9,32.8,29.92,North,352,0.0,0.0,28,0.00,,CLR,0.00,VWS V14.01,2013-05-05 23:24:00,
2013-05-05 19:29:00,66.8,38.3,29.92,NW,323,0.0,0.0,35,0.00,,CLR,0.00,VWS V14.01,2013-05-05 23:29:00,
2013-05-05 19:34:00,66.8,38.3,29.92,North,353,0.0,0.0,35,0.00,,CLR,0.00,VWS V14.01,2013-05-05 23:34:00,
2013-05-05 19:39:00,66.8,38.3,29.92,NNW,344,0.0,0.0,35,0.00,,CLR,0.00,VWS V14.01,2013-05-05 23:39:00,
2013-05-05 19:44:00,65.6,38.7,29.92,North,356,0.0,0.0,37,0.00,,CLR,0.00,VWS V14.01,2013-05-05 23:44:00,
2013-05-05 19:49:00,65.6,38.7,29.92,North,354,0.0,0.0,37,0.00,,CLR,0.00,VWS V14.01,2013-05-05 23:49:00,
2013-05-05 19:54:00,65.6,38.7,29.92,North,354,0.0,0.0,37,0.00,,CLR,0.00,VWS V14.01,2013-05-05 23:54:00,
2013-05-05 19:59:00,65.6,38.7,29.92,North,354,0.0,0.0,37,0.00,,CLR,0.00,VWS V14.01,2013-05-05 23:59:00,
2013-05-05 20:04:00,65.6,38.7,29.93,North,0,0.0,0.0,37,0.00,,CLR,0.00,VWS V14.01,2013-05-06 00:04:00,
2013-05-05 20:09:00,65.6,38.7,29.93,North,0,0.0,0.0,37,0.00,,CLR,0.00,VWS V14.01,2013-05-06 00:09:00,
2013-05-05 20:14:00,63.5,36.8,29.93,North,0,0.0,0.0,37,0.00,,CLR,0.00,VWS V14.01,2013-05-06 00:14:00,
2013-05-05 20:20:00,63.5,40.0,29.92,North,0,0.0,0.0,42,0.00,,CLR,0.00,VWS V14.01,2013-05-06 00:20:00,
2013-05-05 20:25:00,63.5,40.0,29.92,North,0,0.0,0.0,42,0.00,,CLR,0.00,VWS V14.01,2013-05-06 00:25:00,
2013-05-05 20:30:00,63.5,41.2,29.93,North,0,0.0,0.0,44,0.00,,CLR,0.00,VWS V14.01,2013-05-06 00:30:00,
2013-05-05 20:35:00,63.5,41.2,29.93,North,0,0.0,0.0,44,0.00,,CLR,0.00,VWS V14.01,2013-05-06 00:35:00,
2013-05-05 20:40:00,61.8,39.7,29.93,North,0,0.0,0.0,44,0.00,,CLR,0.00,VWS V14.01,2013-05-06 00:40:00,
2013-05-05 20:45:00,61.8,40.3,29.93,North,0,0.0,0.0,45,0.00,,CLR,0.00,VWS V14.01,2013-05-06 00:45:00,
2013-05-05 20:50:00,61.8,40.3,29.93,North,0,0.0,0.0,45,0.00,,CLR,0.00,VWS V14.01,2013-05-06 00:50:00,
2013-05-05 20:55:00,61.8,40.3,29.93,North,0,0.0,0.0,45,0.00,,CLR,0.00,VWS V14.01,2013-05-06 00:55:00,
2013-05-05 21:00:00,61.8,40.3,29.93,North,0,0.0,0.0,45,0.00,,CLR,0.00,VWS V14.01,2013-05-06 01:00:00,
2013-05-05 21:05:00,61.8,40.3,29.93,North,0,0.0,0.0,45,0.00,,CLR,0.00,VWS V14.01,2013-05-06 01:05:00,
2013-05-05 21:10:00,61.8,40.3,29.93,North,0,0.0,0.0,45,0.00,,CLR,0.00,VWS V14.01,2013-05-06 01:10:00,
2013-05-05 21:15:00,61.8,40.3,29.93,North,0,0.0,0.0,45,0.00,,CLR,0.00,VWS V14.01,2013-05-06 01:15:00,
2013-05-05 21:20:00,61.8,40.3,29.93,North,0,0.0,0.0,45,0.00,,CLR,0.00,VWS V14.01,2013-05-06 01:20:00,
2013-05-05 21:25:00,61.8,40.3,29.93,North,0,0.0,0.0,45,0.00,,CLR,0.00,VWS V14.01,2013-05-06 01:25:00,
2013-05-05 21:30:00,61.8,40.3,29.94,North,0,0.0,0.0,45,0.00,,CLR,0.00,VWS V14.01,2013-05-06 01:30:00,
2013-05-05 21:35:00,56.6,35.5,29.94,North,0,0.0,0.0,45,0.00,,CLR,0.00,VWS V14.01,2013-05-06 01:35:00,
2013-05-05 21:41:00,56.6,35.5,29.94,North,0,0.0,0.0,45,0.00,,CLR,0.00,VWS V14.01,2013-05-06 01:41:00,
2013-05-05 21:46:00,56.6,35.5,29.94,North,0,0.0,0.0,45,0.00,,CLR,0.00,VWS V14.01,2013-05-06 01:46:00,
2013-05-05 21:51:00,56.6,35.5,29.94,North,0,0.0,0.0,45,0.00,,CLR,0.00,VWS V14.01,2013-05-06 01:51:00,
2013-05-05 21:56:00,56.6,35.5,29.94,North,0,0.0,0.0,45,0.00,,CLR,0.00,VWS V14.01,2013-05-06 01:56:00,
2013-05-05 22:01:00,56.6,35.5,29.95,North,0,0.0,0.0,45,0.00,,CLR,0.00,VWS V14.01,2013-05-06 02:01:00,
2013-05-05 22:06:00,56.6,35.5,29.95,North,0,0.0,0.0,45,0.00,,CLR,0.00,VWS V14.01,2013-05-06 02:06:00,
2013-05-05 22:11:00,56.6,35.5,29.95,North,0,0.0,0.0,45,0.00,,CLR,0.00,VWS V14.01,2013-05-06 02:11:00,
2013-05-05 22:16:00,52.9,32.2,29.96,North,0,0.0,0.0,45,0.00,,CLR,0.00,VWS V14.01,2013-05-06 02:16:00,
2013-05-05 22:21:00,52.9,32.2,29.96,North,0,0.0,0.0,45,0.00,,CLR,0.00,VWS V14.01,2013-05-06 02:21:00,
2013-05-05 22:26:00,52.9,32.2,29.96,North,0,0.0,0.0,45,0.00,,CLR,0.00,VWS V14.01,2013-05-06 02:26:00,
2013-05-05 22:31:00,52.9,32.2,29.95,North,0,0.0,0.0,45,0.00,,CLR,0.00,VWS V14.01,2013-05-06 02:31:00,
2013-05-05 22:36:00,52.9,32.2,29.95,North,0,0.0,0.0,45,0.00,,CLR,0.00,VWS V14.01,2013-05-06 02:36:00,
2013-05-05 22:41:00,52.9,32.2,29.95,North,0,0.0,0.0,45,0.00,,CLR,0.00,VWS V14.01,2013-05-06 02:41:00,
2013-05-05 22:47:00,52.9,32.2,29.95,North,0,0.0,0.0,45,0.00,,CLR,0.00,VWS V14.01,2013-05-06 02:47:00,
2013-05-05 22:52:00,52.9,32.2,29.95,North,0,0.0,0.0,45,0.00,,CLR,0.00,VWS V14.01,2013-05-06 02:52:00,
2013-05-05 22:57:00,52.9,32.2,29.95,North,0,0.0,0.0,45,0.00,,CLR,0.00,VWS V14.01,2013-05-06 02:57:00,
2013-05-05 23:02:00,52.9,32.2,29.96,North,0,0.0,0.0,45,0.00,,CLR,0.00,VWS V14.01,2013-05-06 03:02:00,
2013-05-05 23:07:00,52.9,32.2,29.96,North,0,0.0,0.0,45,0.00,,CLR,0.00,VWS V14.01,2013-05-06 03:07:00,
2013-05-05 23:12:00,52.9,32.2,29.96,North,0,0.0,0.0,45,0.00,,CLR,0.00,VWS V14.01,2013-05-06 03:12:00,
2013-05-05 23:17:00,52.9,32.2,29.93,SSE,165,0.0,0.0,45,0.00,,CLR,0.00,VWS V14.01,2013-05-06 03:17:00,
2013-05-05 23:22:00,52.9,32.2,29.93,SSE,165,0.0,0.0,45,0.00,,CLR,0.00,VWS V14.01,2013-05-06 03:22:00,
2013-05-05 23:27:00,52.9,32.2,29.93,SSE,165,0.0,0.0,45,0.00,,CLR,0.00,VWS V14.01,2013-05-06 03:27:00,
2013-05-05 23:32:00,52.9,32.2,29.93,SSE,165,0.0,0.0,45,0.00,,CLR,0.00,VWS V14.01,2013-05-06 03:32:00,
2013-05-05 23:37:00,52.9,32.2,29.93,SSE,165,0.0,0.0,45,0.00,,CLR,0.00,VWS V14.01,2013-05-06 03:37:00,
2013-05-05 23:42:00,52.9,32.2,29.93,South,189,0.0,0.0,45,0.00,,CLR,0.00,VWS V14.01,2013-05-06 03:42:00,
2013-05-05 23:47:00,52.9,32.2,29.92,South,189,0.0,0.0,45,0.00,,CLR,0.00,VWS V14.01,2013-05-06 03:47:00,
2013-05-05 23:52:00,52.9,32.2,29.92,South,189,0.0,0.0,45,0.00,,CLR,0.00,VWS V14.01,2013-05-06 03:52:00,
2013-05-05 23:57:00,52.9,32.2,29.92,South,189,0.0,0.0,45,0.00,,CLR,0.00,VWS V14.01,2013-05-06 03:57:00,